Time;durP1;ratioP1;P1;durP2;ratioP2;P2;SDS_P1;SDS_P2;PMS_P1;PMS_P2;Temp;Humidity;BMP_temperature;BMP_pressure;BME280_temperature;BME280_humidity;BME280_pressure;Samples;Min_cycle;Max_cycle;Signal;HPM_P1;HPM_P2
2021/12/01 00:00:44;;;;;;;0.30;0.30;;;;;;;;;;4994221;28;20061;-66
2021/12/01 00:03:09;;;;;;;0.30;0.30;;;;;;;;;;4995122;28;20389;-65
2021/12/01 00:05:34;;;;;;;0.45;0.45;;;;;;;;;;4994697;28;20034;-66
2021/12/01 00:08:00;;;;;;;0.40;0.40;;;;;;;;;;4996846;28;20063;-66
2021/12/01 00:10:26;;;;;;;0.30;0.30;;;;;;;;;;5049355;22;20144;-70
2021/12/01 00:12:51;;;;;;;0.40;0.40;;;;;;;;;;5045366;28;20478;-70
2021/12/01 00:15:17;;;;;;;0.30;0.30;;;;;;;;;;5051615;28;20087;-70
2021/12/01 00:17:43;;;;;;;0.30;0.30;;;;;;;;;;5053436;28;20067;-70
2021/12/01 00:20:12;;;;;;;0.30;0.30;;;;;;;;;;5053279;28;20021;-70
2021/12/01 00:22:38;;;;;;;0.20;0.20;;;;;;;;;;5052270;28;20033;-70
2021/12/01 00:25:04;;;;;;;0.30;0.30;;;;;;;;;;5053473;28;20040;-70
2021/12/01 00:27:29;;;;;;;0.40;0.40;;;;;;;;;;5053380;28;20036;-70
2021/12/01 00:29:56;;;;;;;0.50;0.50;;;;;;;;;;5044470;28;20037;-70
2021/12/01 00:32:21;;;;;;;0.28;0.25;;;;;;;;;;5051886;28;20063;-70
2021/12/01 00:34:47;;;;;;;0.40;0.40;;;;;;;;;;5050908;28;20091;-69
2021/12/01 00:37:12;;;;;;;0.32;0.32;;;;;;;;;;5049927;28;20032;-69
2021/12/01 00:39:37;;;;;;;0.30;0.30;;;;;;;;;;5053177;28;20025;-69
2021/12/01 00:42:03;;;;;;;0.30;0.30;;;;;;;;;;5044709;28;20029;-69
2021/12/01 00:44:29;;;;;;;0.28;0.28;;;;;;;;;;5053061;28;20486;-69
2021/12/01 00:47:05;;;;;;;0.30;0.30;;;;;;;;;;5051204;28;20028;-69
2021/12/01 00:49:32;;;;;;;0.43;0.43;;;;;;;;;;5052923;28;20170;-69
2021/12/01 00:51:57;;;;;;;0.47;0.47;;;;;;;;;;5052889;28;20056;-69
2021/12/01 00:54:22;;;;;;;0.20;0.20;;;;;;;;;;5052812;28;20119;-69
2021/12/01 00:56:49;;;;;;;0.40;0.40;;;;;;;;;;5050747;28;20108;-69
2021/12/01 00:59:14;;;;;;;0.20;0.20;;;;;;;;;;5052611;28;20467;-69
2021/12/01 01:01:40;;;;;;;0.30;0.30;;;;;;;;;;5052304;28;20029;-69
2021/12/01 01:04:05;;;;;;;0.28;0.28;;;;;;;;;;5052392;28;20051;-69
2021/12/01 01:06:30;;;;;;;0.30;0.30;;;;;;;;;;5051531;28;20024;-69
2021/12/01 01:08:56;;;;;;;0.20;0.20;;;;;;;;;;5051227;28;20035;-69
2021/12/01 01:16:52;;;;;;;0.20;0.20;;;;;;;;;;5032281;28;20614;-69
2021/12/01 01:19:18;;;;;;;0.30;0.30;;;;;;;;;;5050299;28;20103;-69
2021/12/01 01:21:47;;;;;;;0.30;0.30;;;;;;;;;;5052123;28;20440;-69
2021/12/01 01:24:12;;;;;;;0.30;0.30;;;;;;;;;;5052347;28;20017;-69
2021/12/01 01:26:38;;;;;;;0.30;0.30;;;;;;;;;;5051674;28;20055;-69
2021/12/01 01:29:03;;;;;;;0.38;0.38;;;;;;;;;;5052127;28;20115;-69
2021/12/01 01:31:29;;;;;;;0.40;0.40;;;;;;;;;;5051209;28;20150;-69
2021/12/01 01:33:54;;;;;;;2.83;0.30;;;;;;;;;;5050516;28;20028;-68
2021/12/01 01:36:20;;;;;;;0.63;0.30;;;;;;;;;;5051890;28;20032;-68
2021/12/01 01:38:45;;;;;;;0.30;0.30;;;;;;;;;;5051814;28;20028;-68
2021/12/01 01:41:11;;;;;;;0.30;0.30;;;;;;;;;;5048108;28;20468;-68
2021/12/01 01:43:37;;;;;;;0.30;0.30;;;;;;;;;;5046860;28;20037;-68
2021/12/01 01:46:03;;;;;;;0.30;0.30;;;;;;;;;;5050377;28;20431;-68
2021/12/01 01:48:30;;;;;;;0.25;0.25;;;;;;;;;;5050514;28;20118;-68
2021/12/01 01:50:56;;;;;;;0.20;0.20;;;;;;;;;;5051443;28;20035;-68
2021/12/01 01:53:24;;;;;;;0.28;0.28;;;;;;;;;;5051777;28;20036;-68
2021/12/01 01:55:51;;;;;;;3.33;0.95;;;;;;;;;;5051348;28;20036;-68
2021/12/01 01:58:16;;;;;;;0.28;0.28;;;;;;;;;;5051192;28;20060;-68
2021/12/01 02:00:53;;;;;;;0.30;0.30;;;;;;;;;;5050791;28;20133;-68
2021/12/01 02:03:22;;;;;;;0.30;0.30;;;;;;;;;;5051550;28;20028;-68
2021/12/01 02:05:47;;;;;;;0.35;0.35;;;;;;;;;;5050676;28;20059;-68
2021/12/01 02:08:17;;;;;;;0.30;0.30;;;;;;;;;;5051724;28;20025;-68
2021/12/01 02:10:43;;;;;;;0.30;0.30;;;;;;;;;;5042078;28;20021;-68
2021/12/01 02:13:08;;;;;;;0.40;0.40;;;;;;;;;;5043294;28;20083;-68
2021/12/01 02:15:35;;;;;;;0.45;0.40;;;;;;;;;;5050991;28;20047;-68
2021/12/01 02:18:00;;;;;;;0.30;0.30;;;;;;;;;;5050943;28;20466;-68
2021/12/01 02:20:26;;;;;;;0.30;0.30;;;;;;;;;;5049623;28;20033;-68
2021/12/01 02:22:51;;;;;;;0.30;0.30;;;;;;;;;;5051598;28;20029;-68
2021/12/01 02:25:16;;;;;;;0.30;0.30;;;;;;;;;;5051076;28;20044;-68
2021/12/01 02:27:42;;;;;;;0.38;0.38;;;;;;;;;;5051390;28;20025;-68
2021/12/01 02:30:07;;;;;;;0.32;0.30;;;;;;;;;;5048587;28;20074;-68
2021/12/01 02:32:33;;;;;;;0.28;0.28;;;;;;;;;;5049406;28;20475;-68
2021/12/01 02:34:58;;;;;;;0.30;0.30;;;;;;;;;;5050839;28;20033;-68
2021/12/01 02:37:23;;;;;;;0.28;0.28;;;;;;;;;;5050699;28;20112;-68
2021/12/01 02:39:50;;;;;;;0.40;0.40;;;;;;;;;;5048578;28;20057;-68
2021/12/01 02:42:15;;;;;;;0.30;0.30;;;;;;;;;;5043275;28;20029;-68
2021/12/01 02:44:40;;;;;;;0.30;0.30;;;;;;;;;;5013317;28;20040;-68
2021/12/01 02:47:06;;;;;;;0.30;0.30;;;;;;;;;;5030860;28;20399;-68
2021/12/01 02:49:31;;;;;;;0.40;0.40;;;;;;;;;;5032709;28;20017;-68
2021/12/01 02:51:57;;;;;;;0.32;0.32;;;;;;;;;;5051005;28;20433;-68
2021/12/01 02:54:23;;;;;;;0.40;0.40;;;;;;;;;;5052111;28;20518;-68
2021/12/01 02:56:49;;;;;;;0.30;0.30;;;;;;;;;;5054266;28;20024;-68
2021/12/01 02:59:15;;;;;;;0.50;0.50;;;;;;;;;;5054543;28;20029;-68
2021/12/01 03:01:40;;;;;;;0.50;0.50;;;;;;;;;;5054408;28;20097;-68
2021/12/01 03:04:05;;;;;;;0.45;0.45;;;;;;;;;;5054790;28;20024;-68
2021/12/01 03:06:33;;;;;;;0.80;0.50;;;;;;;;;;5035850;28;20039;-68
2021/12/01 03:08:58;;;;;;;0.40;0.40;;;;;;;;;;5020905;28;20025;-68
2021/12/01 03:11:24;;;;;;;0.40;0.40;;;;;;;;;;5039328;28;20029;-68
2021/12/01 03:13:50;;;;;;;0.40;0.40;;;;;;;;;;5052172;28;20028;-68
2021/12/01 03:16:15;;;;;;;0.40;0.40;;;;;;;;;;5054456;28;20147;-68
2021/12/01 03:18:43;;;;;;;0.40;0.40;;;;;;;;;;5053409;28;20104;-68
2021/12/01 03:21:08;;;;;;;0.40;0.40;;;;;;;;;;5054366;28;20112;-68
2021/12/01 03:23:34;;;;;;;0.40;0.40;;;;;;;;;;5054521;28;20110;-68
2021/12/01 03:26:00;;;;;;;0.30;0.30;;;;;;;;;;5053644;28;20060;-68
2021/12/01 03:28:25;;;;;;;0.40;0.40;;;;;;;;;;5054330;28;20035;-68
2021/12/01 03:30:50;;;;;;;1.30;0.43;;;;;;;;;;5053575;28;20029;-68
2021/12/01 03:33:18;;;;;;;0.20;0.20;;;;;;;;;;5053903;28;20032;-68
2021/12/01 03:35:44;;;;;;;0.30;0.30;;;;;;;;;;5054088;28;20078;-68
2021/12/01 03:38:09;;;;;;;0.30;0.30;;;;;;;;;;5054375;28;20032;-68
2021/12/01 03:40:35;;;;;;;0.40;0.40;;;;;;;;;;5051931;28;20418;-67
2021/12/01 03:43:00;;;;;;;0.30;0.30;;;;;;;;;;5035347;28;20053;-68
2021/12/01 03:45:25;;;;;;;0.32;0.32;;;;;;;;;;5032662;28;20060;-67
2021/12/01 03:47:51;;;;;;;0.40;0.40;;;;;;;;;;5034122;28;20399;-68
2021/12/01 03:50:16;;;;;;;0.40;0.40;;;;;;;;;;5020881;28;20025;-67
2021/12/01 03:52:42;;;;;;;0.40;0.40;;;;;;;;;;5052771;28;20455;-68
2021/12/01 03:55:07;;;;;;;0.50;0.50;;;;;;;;;;5053531;28;20032;-68
2021/12/01 03:57:33;;;;;;;0.38;0.38;;;;;;;;;;5053102;28;20025;-68
2021/12/01 03:59:58;;;;;;;0.38;0.38;;;;;;;;;;5053777;28;20028;-68
2021/12/01 04:02:23;;;;;;;0.40;0.40;;;;;;;;;;5051958;28;20087;-68
2021/12/01 04:04:49;;;;;;;0.43;0.43;;;;;;;;;;5053068;28;20100;-68
2021/12/01 04:07:14;;;;;;;0.38;0.38;;;;;;;;;;5053040;28;20024;-68
2021/12/01 04:09:41;;;;;;;0.35;0.35;;;;;;;;;;5053711;28;20506;-68
2021/12/01 04:12:07;;;;;;;0.40;0.40;;;;;;;;;;5046100;28;20390;-68
2021/12/01 04:14:32;;;;;;;0.30;0.30;;;;;;;;;;5052215;28;20039;-68
2021/12/01 04:16:57;;;;;;;0.30;0.30;;;;;;;;;;5051981;28;20048;-68
2021/12/01 04:19:23;;;;;;;0.40;0.40;;;;;;;;;;5046791;28;20048;-68
2021/12/01 04:21:48;;;;;;;0.40;0.40;;;;;;;;;;5033260;28;20380;-68
2021/12/01 04:24:13;;;;;;;0.40;0.40;;;;;;;;;;5033595;28;20510;-68
2021/12/01 04:26:39;;;;;;;0.40;0.40;;;;;;;;;;5033205;28;20021;-68
2021/12/01 04:29:04;;;;;;;0.40;0.40;;;;;;;;;;5046073;28;20060;-68
2021/12/01 04:31:30;;;;;;;0.40;0.40;;;;;;;;;;5052608;28;20040;-68
2021/12/01 04:33:56;;;;;;;0.30;0.30;;;;;;;;;;5043600;28;20074;-68
2021/12/01 04:36:26;;;;;;;0.30;0.30;;;;;;;;;;5052509;28;20029;-68
2021/12/01 04:38:52;;;;;;;0.45;0.45;;;;;;;;;;5051956;28;20402;-68
2021/12/01 04:41:18;;;;;;;0.90;0.50;;;;;;;;;;5052627;28;20021;-68
2021/12/01 04:43:43;;;;;;;0.40;0.40;;;;;;;;;;5052544;28;20025;-68
2021/12/01 04:46:10;;;;;;;0.40;0.40;;;;;;;;;;5052532;28;20391;-68
2021/12/01 04:48:35;;;;;;;0.43;0.43;;;;;;;;;;5053000;28;20526;-68
2021/12/01 04:51:01;;;;;;;0.40;0.40;;;;;;;;;;5052039;28;20108;-68
2021/12/01 04:53:26;;;;;;;0.40;0.40;;;;;;;;;;5052640;28;20040;-68
2021/12/01 04:55:52;;;;;;;0.50;0.50;;;;;;;;;;5051850;28;20025;-68
2021/12/01 04:58:18;;;;;;;0.40;0.40;;;;;;;;;;5051751;28;20462;-68
2021/12/01 05:00:43;;;;;;;0.40;0.40;;;;;;;;;;5051744;28;20144;-68
2021/12/01 05:03:08;;;;;;;0.43;0.43;;;;;;;;;;5052031;28;20433;-68
2021/12/01 05:05:34;;;;;;;0.50;0.50;;;;;;;;;;5051737;28;20029;-68
2021/12/01 05:07:59;;;;;;;0.60;0.60;;;;;;;;;;5052747;28;20029;-68
2021/12/01 05:10:24;;;;;;;0.50;0.50;;;;;;;;;;5051767;28;20033;-67
2021/12/01 05:12:50;;;;;;;0.43;0.43;;;;;;;;;;5051317;28;20028;-68
2021/12/01 05:15:15;;;;;;;0.50;0.50;;;;;;;;;;5051740;28;20033;-68
2021/12/01 05:17:40;;;;;;;0.47;0.47;;;;;;;;;;5051468;28;20032;-68
2021/12/01 05:20:06;;;;;;;0.50;0.50;;;;;;;;;;5051626;28;20028;-68
2021/12/01 05:22:32;;;;;;;0.70;0.70;;;;;;;;;;5051234;28;20033;-68
2021/12/01 05:24:57;;;;;;;0.60;0.60;;;;;;;;;;5051182;28;20081;-67
2021/12/01 05:27:22;;;;;;;0.65;0.65;;;;;;;;;;5051875;28;20029;-67
2021/12/01 05:29:48;;;;;;;0.50;0.50;;;;;;;;;;5051978;28;20057;-67
2021/12/01 05:32:14;;;;;;;0.50;0.50;;;;;;;;;;5050907;28;20067;-67
2021/12/01 05:34:39;;;;;;;0.45;0.45;;;;;;;;;;5051549;28;20032;-67
2021/12/01 05:37:04;;;;;;;0.77;0.77;;;;;;;;;;5035269;28;20025;-67
2021/12/01 05:39:32;;;;;;;0.70;0.70;;;;;;;;;;5049382;28;20036;-67
2021/12/01 05:41:58;;;;;;;0.68;0.68;;;;;;;;;;5043387;28;20021;-67
2021/12/01 05:44:23;;;;;;;0.70;0.70;;;;;;;;;;5050491;28;20036;-67
2021/12/01 05:46:49;;;;;;;0.52;0.52;;;;;;;;;;5043007;28;20529;-67
2021/12/01 05:49:14;;;;;;;0.70;0.70;;;;;;;;;;5050474;28;20021;-68
2021/12/01 05:51:39;;;;;;;0.80;0.80;;;;;;;;;;5051745;28;20029;-68
2021/12/01 05:54:05;;;;;;;0.73;0.73;;;;;;;;;;5051649;28;20045;-68
2021/12/01 05:56:30;;;;;;;0.70;0.70;;;;;;;;;;5050822;28;20024;-68
2021/12/01 05:58:56;;;;;;;1.02;0.77;;;;;;;;;;5051459;28;20028;-68
2021/12/01 06:01:21;;;;;;;0.60;0.60;;;;;;;;;;5050883;28;20281;-67
2021/12/01 06:03:46;;;;;;;0.68;0.65;;;;;;;;;;5051474;28;20386;-68
2021/12/01 06:06:12;;;;;;;0.60;0.60;;;;;;;;;;5050244;28;20025;-68
2021/12/01 06:08:37;;;;;;;0.70;0.70;;;;;;;;;;5051540;28;20021;-68
2021/12/01 06:11:03;;;;;;;0.60;0.60;;;;;;;;;;5062020;22;20470;-64
2021/12/01 06:13:29;;;;;;;0.80;0.80;;;;;;;;;;4999216;28;20480;-64
2021/12/01 06:15:55;;;;;;;0.80;0.80;;;;;;;;;;5008529;28;20442;-65
2021/12/01 06:18:20;;;;;;;0.63;0.63;;;;;;;;;;5002490;28;20040;-64
2021/12/01 06:20:46;;;;;;;0.80;0.80;;;;;;;;;;5002042;28;20025;-65
2021/12/01 06:23:12;;;;;;;2.25;0.70;;;;;;;;;;5003661;28;20041;-64
2021/12/01 06:25:37;;;;;;;0.98;0.98;;;;;;;;;;5005566;28;20025;-65
2021/12/01 06:28:02;;;;;;;0.75;0.75;;;;;;;;;;5003441;28;20029;-65
2021/12/01 06:30:31;;;;;;;0.82;0.82;;;;;;;;;;5011217;28;20388;-64
2021/12/01 06:32:56;;;;;;;0.90;0.90;;;;;;;;;;4982797;28;20026;-64
2021/12/01 06:35:21;;;;;;;1.00;1.00;;;;;;;;;;5009449;28;20022;-65
2021/12/01 06:37:47;;;;;;;1.48;1.38;;;;;;;;;;5002211;28;20392;-64
2021/12/01 06:40:13;;;;;;;1.00;1.00;;;;;;;;;;5007472;28;20029;-64
2021/12/01 06:42:38;;;;;;;0.90;0.90;;;;;;;;;;5010171;28;20029;-65
2021/12/01 06:45:05;;;;;;;0.88;0.88;;;;;;;;;;5003361;28;20030;-64
2021/12/01 06:47:30;;;;;;;1.08;1.08;;;;;;;;;;5009899;28;20373;-64
2021/12/01 06:49:55;;;;;;;1.27;0.82;;;;;;;;;;5002182;28;20030;-64
2021/12/01 06:52:20;;;;;;;0.80;0.80;;;;;;;;;;5009199;28;20018;-65
2021/12/01 06:54:46;;;;;;;1.05;0.90;;;;;;;;;;5011220;28;20036;-64
2021/12/01 06:57:11;;;;;;;1.85;0.80;;;;;;;;;;5010776;28;20022;-64
2021/12/01 06:59:36;;;;;;;0.63;0.63;;;;;;;;;;5002091;28;20068;-65
2021/12/01 07:02:02;;;;;;;0.60;0.60;;;;;;;;;;5001398;28;20085;-65
2021/12/01 07:04:29;;;;;;;1.70;0.93;;;;;;;;;;4989931;28;20379;-65
2021/12/01 07:06:54;;;;;;;0.70;0.70;;;;;;;;;;5008467;28;20129;-65
2021/12/01 07:09:23;;;;;;;0.70;0.70;;;;;;;;;;5003192;28;20096;-65
2021/12/01 07:11:48;;;;;;;0.77;0.77;;;;;;;;;;5008441;28;20084;-64
2021/12/01 07:14:13;;;;;;;0.70;0.70;;;;;;;;;;5004265;28;20048;-64
2021/12/01 07:16:39;;;;;;;2.05;1.70;;;;;;;;;;5011085;28;20052;-65
2021/12/01 07:19:06;;;;;;;0.82;0.82;;;;;;;;;;5000072;28;20026;-65
2021/12/01 07:21:31;;;;;;;0.70;0.70;;;;;;;;;;4994978;28;20033;-65
2021/12/01 07:23:56;;;;;;;0.82;0.82;;;;;;;;;;5009000;28;20117;-65
2021/12/01 07:26:21;;;;;;;0.73;0.73;;;;;;;;;;5010783;28;20105;-65
2021/12/01 07:28:47;;;;;;;0.80;0.80;;;;;;;;;;5001744;28;20061;-65
2021/12/01 07:31:12;;;;;;;0.75;0.75;;;;;;;;;;5004436;28;20068;-64
2021/12/01 07:33:37;;;;;;;0.95;0.95;;;;;;;;;;5009059;28;20018;-64
2021/12/01 07:36:04;;;;;;;0.90;0.90;;;;;;;;;;5009636;28;20025;-65
2021/12/01 07:38:30;;;;;;;0.77;0.77;;;;;;;;;;5007828;28;20029;-65
2021/12/01 07:40:55;;;;;;;0.80;0.80;;;;;;;;;;5008573;28;21528;-65
2021/12/01 07:43:20;;;;;;;4.10;1.10;;;;;;;;;;5009894;28;20033;-65
2021/12/01 07:45:46;;;;;;;0.90;0.90;;;;;;;;;;5005610;28;20030;-65
2021/12/01 07:48:12;;;;;;;0.95;0.95;;;;;;;;;;5006817;28;20506;-65
2021/12/01 07:50:37;;;;;;;2.30;0.88;;;;;;;;;;5003995;28;20026;-64
2021/12/01 07:53:02;;;;;;;1.20;1.13;;;;;;;;;;5006389;28;20666;-64
2021/12/01 07:55:27;;;;;;;0.90;0.90;;;;;;;;;;5000001;28;20499;-65
2021/12/01 07:57:53;;;;;;;0.93;0.93;;;;;;;;;;5002603;28;20021;-64
2021/12/01 08:00:18;;;;;;;0.57;0.57;;;;;;;;;;5004299;28;20117;-64
2021/12/01 08:02:45;;;;;;;1.00;1.00;;;;;;;;;;4989348;28;20447;-63
2021/12/01 08:05:10;;;;;;;1.08;1.00;;;;;;;;;;5002046;28;20021;-64
2021/12/01 08:07:38;;;;;;;0.70;0.70;;;;;;;;;;5010119;28;20097;-64
2021/12/01 08:10:04;;;;;;;0.90;0.90;;;;;;;;;;5011412;28;20475;-65
2021/12/01 08:12:29;;;;;;;1.00;1.00;;;;;;;;;;5008828;28;20108;-64
2021/12/01 08:14:55;;;;;;;1.38;1.27;;;;;;;;;;5002527;28;20110;-64
2021/12/01 08:17:20;;;;;;;1.10;1.10;;;;;;;;;;5006890;28;20143;-65
2021/12/01 08:19:45;;;;;;;1.00;1.00;;;;;;;;;;5004428;28;20436;-65
2021/12/01 08:22:11;;;;;;;2.13;0.88;;;;;;;;;;5003975;28;20101;-63
2021/12/01 08:24:36;;;;;;;0.85;0.85;;;;;;;;;;4994005;28;20104;-64
2021/12/01 08:27:02;;;;;;;1.00;1.00;;;;;;;;;;4991491;28;20030;-64
2021/12/01 08:29:27;;;;;;;1.15;1.05;;;;;;;;;;5009178;28;20128;-64
2021/12/01 08:31:52;;;;;;;1.40;1.00;;;;;;;;;;5002062;28;20037;-64
2021/12/01 08:34:17;;;;;;;1.20;1.00;;;;;;;;;;5002438;28;20031;-64
2021/12/01 08:36:45;;;;;;;1.63;0.90;;;;;;;;;;4998665;28;20029;-64
2021/12/01 08:39:11;;;;;;;0.88;0.88;;;;;;;;;;5001934;28;20030;-64
2021/12/01 08:41:36;;;;;;;0.90;0.90;;;;;;;;;;5008619;28;20385;-64
2021/12/01 08:44:01;;;;;;;1.23;1.10;;;;;;;;;;5008274;28;20407;-64
2021/12/01 08:46:27;;;;;;;0.90;0.90;;;;;;;;;;5007098;28;20028;-64
2021/12/01 08:48:52;;;;;;;0.75;0.75;;;;;;;;;;4998339;28;20721;-64
2021/12/01 08:51:18;;;;;;;0.85;0.85;;;;;;;;;;5009271;28;20064;-65
2021/12/01 08:53:43;;;;;;;0.77;0.77;;;;;;;;;;5009796;28;20018;-65
2021/12/01 08:56:10;;;;;;;0.90;0.90;;;;;;;;;;5007487;28;20033;-65
2021/12/01 08:58:35;;;;;;;1.08;0.98;;;;;;;;;;4993537;28;20029;-64
2021/12/01 09:01:00;;;;;;;1.00;1.00;;;;;;;;;;5007556;28;20226;-65
2021/12/01 09:03:26;;;;;;;1.00;0.90;;;;;;;;;;5008399;28;20104;-64
2021/12/01 09:05:52;;;;;;;1.15;1.10;;;;;;;;;;5006983;28;20048;-65
2021/12/01 09:08:20;;;;;;;0.70;0.70;;;;;;;;;;5001887;28;20018;-64
2021/12/01 09:10:46;;;;;;;0.90;0.90;;;;;;;;;;5005187;28;20041;-64
2021/12/01 09:13:11;;;;;;;0.90;0.80;;;;;;;;;;5005872;28;20042;-64
2021/12/01 09:15:38;;;;;;;0.80;0.80;;;;;;;;;;5006946;28;20029;-64
2021/12/01 09:18:03;;;;;;;0.70;0.70;;;;;;;;;;5001625;28;20088;-64
2021/12/01 09:20:29;;;;;;;1.73;0.80;;;;;;;;;;5000071;28;20030;-64
2021/12/01 09:22:54;;;;;;;0.70;0.70;;;;;;;;;;4998835;28;20028;-64
2021/12/01 09:25:20;;;;;;;0.90;0.90;;;;;;;;;;4995574;28;20054;-64
2021/12/01 09:27:46;;;;;;;0.77;0.77;;;;;;;;;;5001244;28;20035;-64
2021/12/01 09:30:12;;;;;;;0.70;0.70;;;;;;;;;;5004462;28;20502;-64
2021/12/01 09:32:38;;;;;;;0.80;0.80;;;;;;;;;;5006265;28;20522;-64
2021/12/01 09:35:04;;;;;;;0.70;0.70;;;;;;;;;;5006547;28;20036;-64
2021/12/01 09:37:29;;;;;;;1.13;0.90;;;;;;;;;;5006451;28;20030;-64
2021/12/01 09:39:55;;;;;;;0.70;0.70;;;;;;;;;;5008981;28;20030;-65
2021/12/01 09:42:20;;;;;;;0.80;0.80;;;;;;;;;;5008543;28;20045;-64
2021/12/01 09:44:45;;;;;;;0.88;0.88;;;;;;;;;;4989675;28;20026;-64
2021/12/01 09:47:11;;;;;;;0.80;0.80;;;;;;;;;;5005485;28;20412;-64
2021/12/01 09:49:36;;;;;;;0.93;0.70;;;;;;;;;;5005075;28;20476;-64
2021/12/01 09:52:02;;;;;;;0.80;0.80;;;;;;;;;;5006537;28;20412;-64
2021/12/01 09:54:27;;;;;;;0.80;0.80;;;;;;;;;;5006604;28;20404;-64
2021/12/01 09:56:52;;;;;;;0.75;0.75;;;;;;;;;;5004944;28;20088;-64
2021/12/01 09:59:17;;;;;;;0.80;0.80;;;;;;;;;;5006238;28;20030;-64
2021/12/01 10:01:43;;;;;;;0.85;0.70;;;;;;;;;;5007966;28;20045;-65
2021/12/01 10:04:08;;;;;;;0.88;0.88;;;;;;;;;;5006088;28;20033;-64
2021/12/01 10:06:33;;;;;;;0.75;0.75;;;;;;;;;;5006246;28;20040;-64
2021/12/01 10:09:01;;;;;;;1.00;0.80;;;;;;;;;;4984895;28;20410;-65
2021/12/01 10:11:28;;;;;;;0.70;0.70;;;;;;;;;;5006361;28;20100;-64
2021/12/01 10:14:00;;;;;;;0.90;0.90;;;;;;;;;;5007057;28;20523;-64
2021/12/01 10:16:29;;;;;;;0.80;0.80;;;;;;;;;;5005306;28;20032;-65
2021/12/01 10:18:59;;;;;;;0.60;0.60;;;;;;;;;;5003158;28;20026;-64
2021/12/01 10:21:34;;;;;;;1.27;0.80;;;;;;;;;;5001871;28;20022;-64
2021/12/01 10:24:05;;;;;;;0.70;0.70;;;;;;;;;;5005586;28;20026;-65
2021/12/01 10:26:33;;;;;;;0.70;0.70;;;;;;;;;;5006886;28;20106;-65
2021/12/01 10:29:00;;;;;;;0.75;0.75;;;;;;;;;;5004862;28;20030;-64
2021/12/01 10:31:35;;;;;;;0.80;0.80;;;;;;;;;;4989708;28;20030;-64
2021/12/01 10:34:14;;;;;;;0.93;0.90;;;;;;;;;;5005741;28;20104;-65
2021/12/01 10:36:39;;;;;;;0.73;0.73;;;;;;;;;;5005390;28;20030;-64
2021/12/01 10:39:05;;;;;;;0.70;0.70;;;;;;;;;;5004849;28;20034;-66
2021/12/01 10:41:36;;;;;;;0.70;0.70;;;;;;;;;;5008330;28;20088;-63
2021/12/01 10:44:08;;;;;;;0.80;0.80;;;;;;;;;;5006762;28;20044;-64
2021/12/01 10:46:48;;;;;;;0.70;0.70;;;;;;;;;;5005905;28;20028;-64
2021/12/01 10:49:13;;;;;;;0.77;0.77;;;;;;;;;;4999102;28;20057;-63
2021/12/01 10:51:39;;;;;;;0.60;0.60;;;;;;;;;;5003438;28;20519;-64
2021/12/01 10:54:12;;;;;;;0.73;0.73;;;;;;;;;;4981935;28;20026;-64
2021/12/01 10:56:38;;;;;;;0.60;0.60;;;;;;;;;;4999039;28;20026;-64
2021/12/01 10:59:14;;;;;;;0.60;0.60;;;;;;;;;;5006157;28;20116;-63
2021/12/01 11:01:39;;;;;;;0.60;0.60;;;;;;;;;;4997311;28;20108;-64
2021/12/01 11:04:05;;;;;;;3.30;0.80;;;;;;;;;;5007379;28;20022;-64
2021/12/01 11:06:33;;;;;;;0.50;0.50;;;;;;;;;;5005238;28;20021;-64
2021/12/01 11:08:59;;;;;;;0.50;0.50;;;;;;;;;;5000203;28;20480;-64
2021/12/01 11:11:34;;;;;;;0.93;0.60;;;;;;;;;;5005517;28;20109;-64
2021/12/01 11:14:07;;;;;;;0.60;0.60;;;;;;;;;;5003249;28;20030;-66
2021/12/01 11:16:35;;;;;;;0.50;0.50;;;;;;;;;;5001947;28;20500;-64
2021/12/01 11:19:01;;;;;;;0.57;0.57;;;;;;;;;;5007319;28;20026;-64
2021/12/01 11:21:26;;;;;;;0.50;0.50;;;;;;;;;;5010299;28;20076;-64
2021/12/01 11:24:01;;;;;;;1.15;0.60;;;;;;;;;;5011751;28;20028;-63
2021/12/01 11:26:28;;;;;;;0.60;0.60;;;;;;;;;;5011336;28;20026;-64
2021/12/01 11:28:55;;;;;;;7.32;0.70;;;;;;;;;;4993437;28;20717;-64
2021/12/01 11:31:23;;;;;;;0.43;0.43;;;;;;;;;;5007466;28;20709;-64
2021/12/01 11:33:52;;;;;;;0.60;0.60;;;;;;;;;;5009802;28;20160;-64
2021/12/01 11:36:19;;;;;;;0.70;0.70;;;;;;;;;;5009236;28;20026;-62
2021/12/01 11:38:55;;;;;;;0.70;0.70;;;;;;;;;;5002387;28;20030;-64
2021/12/01 11:41:20;;;;;;;0.68;0.68;;;;;;;;;;5009498;28;20392;-64
2021/12/01 11:43:46;;;;;;;0.73;0.70;;;;;;;;;;5010180;28;20030;-64
2021/12/01 11:46:11;;;;;;;0.57;0.57;;;;;;;;;;5011374;28;20100;-64
2021/12/01 11:48:43;;;;;;;0.60;0.60;;;;;;;;;;5009600;28;20068;-66
2021/12/01 11:51:21;;;;;;;0.60;0.60;;;;;;;;;;5001677;28;20044;-66
2021/12/01 11:53:55;;;;;;;0.40;0.40;;;;;;;;;;5007592;28;20069;-64
2021/12/01 11:56:29;;;;;;;0.60;0.60;;;;;;;;;;5006539;28;20022;-64
2021/12/01 11:59:00;;;;;;;0.80;0.70;;;;;;;;;;4988079;28;20637;-63
2021/12/01 12:01:26;;;;;;;0.50;0.50;;;;;;;;;;5003665;28;20515;-66
2021/12/01 12:03:54;;;;;;;3.30;0.70;;;;;;;;;;5006912;28;20034;-63
2021/12/01 12:06:24;;;;;;;0.50;0.50;;;;;;;;;;5004633;28;20427;-64
2021/12/01 12:08:57;;;;;;;0.60;0.60;;;;;;;;;;5005625;28;20519;-65
2021/12/01 12:11:46;;;;;;;0.73;0.73;;;;;;;;;;5003068;28;20022;-63
2021/12/01 12:14:24;;;;;;;0.50;0.50;;;;;;;;;;5170975;23;20871;-66
2021/12/01 12:17:05;;;;;;;0.60;0.60;;;;;;;;;;4996803;28;20031;-66
2021/12/01 12:19:52;;;;;;;0.60;0.60;;;;;;;;;;4996680;28;20034;-66
2021/12/01 12:22:32;;;;;;;0.60;0.60;;;;;;;;;;4995430;28;20129;-66
2021/12/01 12:24:57;;;;;;;0.60;0.60;;;;;;;;;;4985508;28;20034;-64
2021/12/01 12:27:36;;;;;;;0.57;0.57;;;;;;;;;;4984729;28;20076;-66
2021/12/01 12:30:25;;;;;;;0.57;0.57;;;;;;;;;;4986308;28;20473;-65
2021/12/01 12:32:50;;;;;;;0.60;0.60;;;;;;;;;;4989957;28;20038;-65
2021/12/01 12:35:16;;;;;;;0.60;0.60;;;;;;;;;;4972407;28;20045;-65
2021/12/01 12:37:42;;;;;;;0.60;0.60;;;;;;;;;;4989740;28;20030;-65
2021/12/01 12:40:21;;;;;;;0.60;0.60;;;;;;;;;;4985557;28;20353;-67
2021/12/01 12:43:05;;;;;;;0.50;0.50;;;;;;;;;;4988752;28;20050;-66
2021/12/01 12:45:31;;;;;;;0.68;0.68;;;;;;;;;;4988831;28;20395;-66
2021/12/01 12:47:56;;;;;;;0.40;0.40;;;;;;;;;;4989165;28;20105;-65
2021/12/01 12:50:23;;;;;;;0.50;0.50;;;;;;;;;;4986664;28;20030;-66
2021/12/01 12:53:05;;;;;;;0.52;0.52;;;;;;;;;;4983808;28;20042;-67
2021/12/01 12:55:31;;;;;;;0.40;0.40;;;;;;;;;;4986847;28;20069;-65
2021/12/01 12:58:03;;;;;;;1.40;0.50;;;;;;;;;;4988565;28;20018;-65
2021/12/01 13:00:52;;;;;;;0.63;0.50;;;;;;;;;;4987448;28;20060;-66
2021/12/01 13:03:19;;;;;;;0.50;0.50;;;;;;;;;;4985479;28;20026;-66
2021/12/01 13:05:45;;;;;;;0.47;0.47;;;;;;;;;;4987029;28;20488;-66
2021/12/01 13:08:29;;;;;;;0.60;0.60;;;;;;;;;;4987950;28;20037;-66
2021/12/01 13:11:14;;;;;;;0.63;0.63;;;;;;;;;;4991167;28;20022;-66
2021/12/01 13:13:44;;;;;;;0.63;0.50;;;;;;;;;;4995162;28;20374;-66
2021/12/01 13:16:11;;;;;;;0.50;0.50;;;;;;;;;;4998845;28;20377;-66
2021/12/01 13:18:40;;;;;;;0.85;0.50;;;;;;;;;;4988924;28;20038;-66
2021/12/01 13:21:07;;;;;;;0.70;0.70;;;;;;;;;;4988158;28;20045;-66
2021/12/01 13:23:35;;;;;;;0.50;0.50;;;;;;;;;;4987916;28;20028;-66
2021/12/01 13:26:07;;;;;;;0.68;0.68;;;;;;;;;;4988764;28;20085;-66
2021/12/01 13:28:40;;;;;;;1.20;0.50;;;;;;;;;;4988332;28;20473;-65
2021/12/01 13:31:14;;;;;;;0.60;0.60;;;;;;;;;;4986698;28;20073;-66
2021/12/01 13:33:53;;;;;;;0.55;0.55;;;;;;;;;;4987244;28;20029;-66
2021/12/01 13:36:18;;;;;;;0.70;0.70;;;;;;;;;;4985641;28;20081;-66
2021/12/01 13:38:44;;;;;;;0.55;0.55;;;;;;;;;;4982875;28;20139;-66
2021/12/01 13:41:12;;;;;;;0.57;0.57;;;;;;;;;;4983210;28;20045;-66
2021/12/01 13:43:37;;;;;;;0.80;0.52;;;;;;;;;;4980416;28;20500;-66
2021/12/01 13:46:03;;;;;;;0.55;0.55;;;;;;;;;;4985112;28;21005;-66
2021/12/01 13:48:28;;;;;;;0.60;0.60;;;;;;;;;;4986884;28;20439;-66
2021/12/01 13:51:07;;;;;;;0.80;0.80;;;;;;;;;;4991788;28;20032;-66
2021/12/01 13:53:32;;;;;;;0.80;0.80;;;;;;;;;;4984672;28;20089;-67
2021/12/01 13:55:59;;;;;;;0.50;0.50;;;;;;;;;;4997016;28;20034;-66
2021/12/01 13:58:24;;;;;;;0.68;0.68;;;;;;;;;;4985089;28;20078;-66
2021/12/01 14:00:51;;;;;;;1.27;0.60;;;;;;;;;;4985582;28;20070;-66
2021/12/01 14:03:18;;;;;;;0.50;0.50;;;;;;;;;;4987145;28;20487;-66
2021/12/01 14:05:46;;;;;;;0.60;0.60;;;;;;;;;;4986831;28;20035;-66
2021/12/01 14:08:32;;;;;;;0.60;0.60;;;;;;;;;;4985035;28;20030;-66
2021/12/01 14:10:59;;;;;;;0.50;0.50;;;;;;;;;;4989296;28;20033;-67
2021/12/01 14:13:25;;;;;;;0.70;0.70;;;;;;;;;;4980943;28;20499;-66
2021/12/01 14:15:50;;;;;;;0.60;0.60;;;;;;;;;;4987046;28;20030;-66
2021/12/01 14:18:16;;;;;;;0.60;0.60;;;;;;;;;;4986291;28;20092;-66
2021/12/01 14:20:41;;;;;;;0.50;0.50;;;;;;;;;;4987409;28;20027;-67
2021/12/01 14:23:07;;;;;;;0.40;0.40;;;;;;;;;;4986108;28;20539;-66
2021/12/01 14:25:32;;;;;;;0.50;0.50;;;;;;;;;;4982412;28;20030;-66
2021/12/01 14:28:02;;;;;;;0.50;0.50;;;;;;;;;;4985309;28;20043;-66
2021/12/01 14:30:28;;;;;;;0.60;0.60;;;;;;;;;;4983716;28;20093;-66
2021/12/01 14:32:53;;;;;;;0.63;0.60;;;;;;;;;;4983271;28;20030;-66
2021/12/01 14:35:20;;;;;;;5.07;1.48;;;;;;;;;;4985778;28;20462;-67
2021/12/01 14:37:45;;;;;;;0.77;0.77;;;;;;;;;;4986764;28;20105;-67
2021/12/01 14:40:14;;;;;;;0.70;0.70;;;;;;;;;;4986272;28;20113;-67
2021/12/01 14:42:50;;;;;;;7.38;0.77;;;;;;;;;;4987425;28;20022;-65
2021/12/01 14:45:18;;;;;;;0.70;0.70;;;;;;;;;;4985130;28;20038;-65
2021/12/01 14:47:59;;;;;;;1.75;0.88;;;;;;;;;;4986878;28;20511;-66